Relevés horaires Semmerzake (Belgique)


Relevés horaires à Semmerzake - Lundi 31 Août 2026
Heure UTC1 Température [°C] Vent [km/h] Hum. [%] Pres.4 [hPa] Visi. [Km] Nébu. [octa] Préc.5 [mm] Cond.
2m. Res. Ros. Dir.2 Vit. Moy. Raf.3
23:00 16.8 16.8 14.9 SO 3.7 -- 9.3 89 1018.1(0.8/3h) 40 -- -- --
22:00 17.2 17.2 14.8 SSO 5.6 -- 9.3 86 1017.8(1.4/3h) 14 -- -- --
21:00 17.2 17.2 14.5 SO 5.6 -- 14.8 84 1017.7(1.9/3h) 15 -- -- --
20:00 17.8 17.8 14.3 SO 5.6 -- 14.8 80 1017.2(2.3/3h) 70 -- -- --
19:00 18.6 18.6 14.0 OSO 9.3 -- 14.8 75 1016.5(2.0/3h) >70 -- -- --
18:00 19.7 19.7 14.0 OSO 7.4 -- 20.4 70 1015.6(1.7/3h) >70 -- 1/12h
NA
17:00 21.1 21.1 13.0 O 5.6 -- 14.8 60 1014.8(1.9/3h) 70 -- -- Ciel clair
16:00 21.4 21.4 12.1 ONO 5.6 -- 14.8 55 1014.3(2.2/3h) >70 -- -- --
15:00 20.5 20.5 11.6 O 7.4 -- 20.4 57 1013.7(2.3/3h) >70 -- -- NA
14:00 20.6 20.6 13.3 O 9.3 -- 20.4 63 1012.8(1.8/3h) 70 -- -- Ciel clair
13:00 19.8 19.8 14.9 O 7.4 -- 20.4 73 1012.1(1.4/3h) 70 -- -- Ciel clair
12:00 19.9 19.9 12.0 O 7.4 -- 24.1 60 1011.5(1.2/3h) >70 -- 0.8/6h
NA
11:00 18.3 18.3 13.9 SO 11.1 -- 22.2 76 1011.1(1.2/3h) >70 -- -- --
10:00 16.5 16.1 14.8 SSO 13.0 -- 22.2 90 1010.7(0.9/3h) >70 -- -- NA
09:00 18.1 18.1 14.2 SO 11.1 -- 24.1 78 1010.2(0.8/3h) 70 -- -- Ciel clair
08:00 17.5 17.5 14.7 SO 11.1 -- 18.5 84 1009.8(0.9/3h) >70 -- -- --
07:00 15.6 15.4 14.2 SSO 9.3 -- 18.5 91 1009.7(0.6/3h) 70 -- -- Ciel clair
06:00 15.8 15.4 13.9 SSO 11.1 -- 22.2 88 1009.3(0.0/3h) 13 -- 0.5/12h
Il y a de la pluie faible et continue à la station au moment de l'observation
05:00 16.5 16.1 13.3 SSO 13.0 -- 22.2 81 1008.8(-0.5/3h) >70 -- -- --
04:00 16.6 16.4 13.3 SSO 11.1 -- 18.5 81 1009.1(-0.5/3h) >70 -- -- --
03:00 16.8 16.6 13.6 SSO 11.1 9.3 18.5 81 1009.5(-0.5/3h) >70 -- -- --
02:00 16.7 16.7 14.0 SSO 7.4 -- 14.8 84 1009.5(-0.5/3h) >70 -- -- --
01:00 17.0 17.0 14.0 SSO 7.4 -- 11.1 82 1009.6(-0.1/3h) 70 -- -- --
00:00 17.2 17.2 14.6 SSO 5.6 -- 14.8 85 1010(-0.3/3h) 70 -- -- Ciel clair

1 Coordinated Universal Time. Actuellement il est 08:00 locale et 06:00 UTC.

2 Le vent souffle depuis la direction indiquée vers la direction oposée.

3 Les rafales max. sont disponible 40 min après l'heure du relevé.

4 Pour les stations d'altitude (plus de 600m) le géopotentiel du niveau le plus proche de la pression obligatoire est indiqué.

5 Les stations disposant d'un diffuseur peuvent indiquer "trace". Cela signifie que des précipitations ont touchés le sol mais que la quantité est inférieure à 0.1 mm.

Récapitulatif de la journée
Température [°C] Vent [km/h] Ensoleillement4 [h] Precipitations totale5 [mm] Pression [Hpa]
Min1 Max.2 Moy.3 Max. Min Max.
15.7 22.1 9.3 24.1 0 h 0 min 0 1008.8 1018.1

1 Température minimale relevée entre 18:00 UTC la veille et 18:00 UTC le jour donné.

2 Température maximale relevée entre 06:00 UTC le jour donné et 06:00 UTC le lendemain.

3 Vent moyen de la journée basé sur les relevés horaires.

4 Ensoleillement en heures relevé entre 06:00 UTC la veille et 06:00 UTC le jour donné.

5 Précipitations totales tombées entre 06:00 UTC la jour donné et 06:00 UTC le lendemain.

Graphiques horaires